Time;durP1;ratioP1;P1;durP2;ratioP2;P2;SDS_P1;SDS_P2;PMS_P1;PMS_P2;Temp;Humidity;BMP_temperature;BMP_pressure;BME280_temperature;BME280_humidity;BME280_pressure;Samples;Min_cycle;Max_cycle;Signal;HPM_P1;HPM_P2
2021/01/10 00:02:44;;;;;;;1.65;0.90;;;25.40;92.70;;;;;;5003690;28;20022;-93
2021/01/10 00:12:30;;;;;;;2.63;0.90;;;25.40;92.70;;;;;;4966740;29;20055;-93
2021/01/10 00:15:08;;;;;;;2.70;0.70;;;25.30;92.70;;;;;;4948626;29;20067;-93
2021/01/10 00:17:48;;;;;;;1.48;0.68;;;25.30;92.70;;;;;;4966882;29;20028;-93
2021/01/10 00:20:17;;;;;;;1.15;0.88;;;25.30;92.70;;;;;;4964596;29;20039;-92
2021/01/10 00:22:53;;;;;;;2.83;0.95;;;25.30;92.80;;;;;;4997517;28;20321;-92
2021/01/10 00:25:40;;;;;;;0.85;0.70;;;25.30;92.70;;;;;;5007848;28;20022;-90
2021/01/10 00:28:55;;;;;;;1.67;0.60;;;25.20;92.80;;;;;;4990190;28;20042;-92
2021/01/10 00:31:31;;;;;;;3.30;1.00;;;25.20;92.90;;;;;;4990754;28;20049;-94
2021/01/10 00:33:58;;;;;;;1.33;0.70;;;25.20;92.80;;;;;;4989354;28;20033;-92
2021/01/10 00:37:04;;;;;;;1.65;0.90;;;25.10;92.90;;;;;;5011268;28;20034;-93
2021/01/10 00:39:39;;;;;;;1.35;0.70;;;25.10;92.90;;;;;;5031106;28;20097;-92
2021/01/10 00:42:13;;;;;;;0.98;0.60;;;25.10;93.00;;;;;;5042429;28;20347;-92
2021/01/10 00:44:53;;;;;;;2.50;0.90;;;25.10;93.20;;;;;;5070290;28;20047;-93
2021/01/10 00:47:24;;;;;;;1.98;1.58;;;25.00;93.10;;;;;;5053823;28;20028;-93
2021/01/10 00:49:53;;;;;;;4.82;2.35;;;25.10;93.00;;;;;;5070507;28;20037;-93
2021/01/10 00:52:34;;;;;;;2.70;1.70;;;25.10;93.00;;;;;;5070865;28;20259;-94
2021/01/10 00:55:28;;;;;;;2.88;1.10;;;25.00;92.90;;;;;;5071802;28;20033;-93
2021/01/10 01:01:24;;;;;;;1.83;0.60;;;25.00;92.80;;;;;;5047007;28;20234;-94
2021/01/10 01:03:57;;;;;;;1.38;0.73;;;25.00;93.00;;;;;;5046397;28;20021;-95
2021/01/10 01:06:30;;;;;;;2.63;0.60;;;25.00;92.70;;;;;;5046464;28;20276;-94
2021/01/10 01:09:40;;;;;;;1.55;0.80;;;24.90;92.90;;;;;;5046792;28;20033;-93
2021/01/10 01:12:18;;;;;;;1.38;0.70;;;24.90;92.70;;;;;;5085308;28;20100;-92
2021/01/10 01:15:18;;;;;;;2.85;0.80;;;24.80;92.80;;;;;;5069847;28;20029;-95
2021/01/10 01:21:05;;;;;;;;;;;;;;;;;;;;;
2021/01/10 01:23:44;;;;;;;1.52;0.70;;;24.80;92.70;;;;;;5086312;28;20044;-94
2021/01/10 01:26:33;;;;;;;;;;;;;;;;;;;;;
2021/01/10 01:29:32;;;;;;;3.83;0.60;;;24.70;93.00;;;;;;5080584;28;20068;-94
2021/01/10 01:33:06;;;;;;;;;;;;;;;;;;;;;
2021/01/10 01:40:46;;;;;;;1.27;0.40;;;24.80;92.30;;;;;;5094540;28;20040;-93
2021/01/10 01:43:16;;;;;;;0.77;0.40;;;24.70;92.40;;;;;;5069639;28;20384;-93
2021/01/10 01:46:25;;;;;;;2.70;0.65;;;24.70;92.40;;;;;;5071040;28;20044;-92
2021/01/10 01:48:52;;;;;;;0.68;0.40;;;24.60;92.30;;;;;;5059026;28;20273;-92
2021/01/10 01:51:22;;;;;;;1.38;0.45;;;24.70;92.30;;;;;;5068247;28;20317;-91
2021/01/10 01:54:02;;;;;;;1.95;0.50;;;24.70;92.20;;;;;;5085405;28;20024;-93
2021/01/10 01:59:27;;;;;;;0.80;0.43;;;24.70;92.00;;;;;;5008061;28;20057;-92
2021/01/10 02:02:06;;;;;;;3.42;0.90;;;24.70;92.10;;;;;;4989487;28;20045;-94
2021/01/10 02:05:01;;;;;;;2.13;1.00;;;24.70;92.20;;;;;;4987512;28;20346;-91
2021/01/10 02:08:21;;;;;;;1.60;0.63;;;24.70;92.20;;;;;;4990765;28;20032;-92
2021/01/10 02:10:51;;;;;;;0.90;0.60;;;24.60;92.40;;;;;;5004931;28;20045;-91
2021/01/10 02:13:26;;;;;;;0.60;0.50;;;24.60;92.50;;;;;;4989228;28;20223;-91
2021/01/10 02:15:57;;;;;;;0.75;0.60;;;24.50;92.50;;;;;;4989189;28;20042;-91
2021/01/10 02:18:25;;;;;;;0.55;0.43;;;24.50;92.50;;;;;;5051458;28;20037;-92
2021/01/10 02:21:16;;;;;;;3.90;0.40;;;24.50;92.50;;;;;;5094324;28;20046;-92
2021/01/10 02:24:02;;;;;;;1.00;0.70;;;24.50;92.40;;;;;;5109426;28;20019;-91
2021/01/10 02:29:51;;;;;;;0.98;0.65;;;24.60;92.20;;;;;;5093091;28;20051;-93
2021/01/10 02:32:24;;;;;;;1.52;1.27;;;24.60;92.30;;;;;;5127937;28;20019;-92
2021/01/10 02:34:59;;;;;;;2.25;1.20;;;24.60;92.20;;;;;;5110507;28;20023;-93
2021/01/10 02:41:22;;;;;;;;;;;;;;;;;;;;;
2021/01/10 02:44:29;;;;;;;5.97;2.92;;;24.60;92.40;;;;;;5121012;28;20067;-92
2021/01/10 02:48:20;;;;;;;4.43;1.85;;;24.60;92.20;;;;;;5108492;28;20023;-92
2021/01/10 02:50:22;;;;;;;2.55;0.90;;;24.70;92.20;;;;;;5108713;28;20036;-92
2021/01/10 02:52:49;;;;;;;2.08;0.82;;;24.70;92.30;;;;;;5107590;28;20020;-91
2021/01/10 02:55:24;;;;;;;1.73;0.90;;;24.60;92.30;;;;;;5126152;28;20016;-91
2021/01/10 02:58:03;;;;;;;1.60;0.88;;;24.60;92.30;;;;;;5124599;28;20069;-92
2021/01/10 03:00:41;;;;;;;1.30;0.55;;;24.60;92.40;;;;;;5109205;28;20026;-92
2021/01/10 03:03:12;;;;;;;2.35;0.70;;;24.60;92.30;;;;;;5108031;28;20016;-92
2021/01/10 03:05:40;;;;;;;4.35;2.80;;;24.70;92.10;;;;;;5108656;28;20055;-92
2021/01/10 03:08:40;;;;;;;6.40;4.65;;;24.70;92.10;;;;;;5108790;28;20095;-91
2021/01/10 03:11:10;;;;;;;5.50;4.15;;;24.70;92.10;;;;;;5056829;28;20026;-93
2021/01/10 03:13:38;;;;;;;2.72;2.15;;;24.70;92.00;;;;;;5091439;28;20316;-93
2021/01/10 03:16:11;;;;;;;3.03;2.40;;;24.70;92.00;;;;;;5108296;28;20022;-93
2021/01/10 03:18:37;;;;;;;;;;;24.80;92.10;;;;;;5108374;28;20034;-91
2021/01/10 03:21:04;;;;;;;1.70;0.90;;;24.70;92.20;;;;;;5107531;28;19961;-93
2021/01/10 03:23:30;;;;;;;1.45;0.63;;;24.70;92.20;;;;;;5108016;28;20102;-92
2021/01/10 03:25:57;;;;;;;1.58;0.95;;;24.70;92.40;;;;;;5107609;28;20024;-92
2021/01/10 03:28:23;;;;;;;5.38;0.95;;;24.60;92.40;;;;;;5091769;28;20035;-92
2021/01/10 03:30:50;;;;;;;1.30;0.90;;;24.60;92.30;;;;;;5107539;28;20022;-91
2021/01/10 03:33:17;;;;;;;0.70;0.70;;;24.60;92.30;;;;;;5107902;28;20023;-92
2021/01/10 03:35:43;;;;;;;1.73;1.05;;;24.60;92.50;;;;;;5091156;28;20023;-91
2021/01/10 03:38:12;;;;;;;2.35;0.75;;;24.60;92.40;;;;;;5126278;28;20024;-91
2021/01/10 03:40:45;;;;;;;0.90;0.70;;;24.60;92.20;;;;;;5105817;28;20051;-94
2021/01/10 03:43:12;;;;;;;2.72;1.13;;;24.60;92.40;;;;;;5106282;28;20031;-92
2021/01/10 03:48:07;;;;;;;1.60;0.63;;;24.60;92.30;;;;;;5104817;22;20108;-90
2021/01/10 03:50:33;;;;;;;0.80;0.50;;;24.60;92.20;;;;;;5045232;28;20309;-88
2021/01/10 03:53:00;;;;;;;2.75;0.57;;;24.60;92.30;;;;;;5064190;28;20118;-91
2021/01/10 03:55:27;;;;;;;0.85;0.52;;;24.60;92.20;;;;;;5046393;28;20017;-92
2021/01/10 03:57:54;;;;;;;1.58;0.50;;;24.60;92.00;;;;;;5045943;28;20359;-91
2021/01/10 04:00:26;;;;;;;0.88;0.43;;;24.60;92.20;;;;;;5045343;28;20112;-91
2021/01/10 04:02:53;;;;;;;0.63;0.50;;;24.60;92.20;;;;;;5063194;28;20021;-91
2021/01/10 04:05:20;;;;;;;4.65;0.60;;;24.60;91.80;;;;;;5046007;28;20021;-91
2021/01/10 04:08:14;;;;;;;2.97;0.60;;;24.70;91.60;;;;;;5046047;28;20025;-93
2021/01/10 04:11:25;;;;;;;3.42;0.50;;;24.60;91.80;;;;;;5042982;28;20032;-91
2021/01/10 04:13:51;;;;;;;3.00;0.65;;;24.70;91.60;;;;;;5063040;28;20068;-91
2021/01/10 04:16:17;;;;;;;1.90;0.50;;;24.70;91.80;;;;;;5045864;28;20256;-91
2021/01/10 04:18:53;;;;;;;1.55;0.50;;;24.70;91.50;;;;;;5046241;28;20029;-91
2021/01/10 04:21:19;;;;;;;1.60;0.40;;;24.70;91.40;;;;;;5063863;28;20044;-89
2021/01/10 04:23:46;;;;;;;2.47;0.40;;;24.70;91.60;;;;;;5062915;28;20060;-90
2021/01/10 04:26:12;;;;;;;0.80;0.40;;;24.70;91.60;;;;;;5062930;28;20025;-91
2021/01/10 04:35:24;;;;;;;5.65;0.60;;;24.70;91.80;;;;;;5064948;28;20035;-92
2021/01/10 04:37:50;;;;;;;1.83;0.40;;;24.70;91.70;;;;;;5064401;28;20028;-92
2021/01/10 04:40:17;;;;;;;2.33;0.55;;;24.70;92.00;;;;;;5065272;28;20213;-90
2021/01/10 04:42:54;;;;;;;0.80;0.43;;;24.70;91.80;;;;;;5045924;28;20059;-90
2021/01/10 04:45:21;;;;;;;1.05;0.70;;;24.80;91.90;;;;;;5046780;28;20063;-91
2021/01/10 04:47:48;;;;;;;0.98;0.60;;;24.80;92.20;;;;;;5046312;28;20394;-91
2021/01/10 04:50:16;;;;;;;4.13;1.38;;;24.80;92.00;;;;;;5064175;28;20021;-92
2021/01/10 04:52:46;;;;;;;2.80;0.63;;;24.80;92.20;;;;;;5064210;28;20044;-91
2021/01/10 04:55:16;;;;;;;2.83;0.90;;;24.80;92.40;;;;;;5046509;28;20017;-91
2021/01/10 04:57:43;;;;;;;1.75;0.93;;;24.80;92.30;;;;;;5047639;28;20024;-92
2021/01/10 05:00:13;;;;;;;1.73;1.10;;;24.80;92.40;;;;;;5046306;28;20039;-91
2021/01/10 05:03:16;;;;;;;5.43;1.10;;;24.70;92.40;;;;;;5047167;28;20033;-91
2021/01/10 05:05:43;;;;;;;3.35;1.10;;;24.70;92.80;;;;;;5040637;28;20021;-91
2021/01/10 05:08:16;;;;;;;2.50;1.10;;;24.70;93.40;;;;;;5048134;28;20335;-93
2021/01/10 05:10:42;;;;;;;3.83;1.00;;;24.70;93.10;;;;;;5068176;28;20052;-91
2021/01/10 05:13:09;;;;;;;2.95;1.05;;;24.70;92.80;;;;;;5046116;28;20013;-91
2021/01/10 05:15:37;;;;;;;1.95;1.40;;;24.70;92.90;;;;;;5049204;28;20047;-92
2021/01/10 05:18:07;;;;;;;2.17;0.98;;;24.70;92.50;;;;;;5049547;28;20084;-92
2021/01/10 05:20:46;;;;;;;1.55;1.13;;;24.70;92.80;;;;;;5067432;28;20301;-92
2021/01/10 05:23:14;;;;;;;3.53;1.15;;;24.70;93.00;;;;;;5050143;28;20092;-92
2021/01/10 05:25:41;;;;;;;0.98;0.73;;;24.60;93.30;;;;;;5067274;28;20321;-92
2021/01/10 05:28:10;;;;;;;1.98;1.02;;;24.60;93.10;;;;;;5048679;28;20020;-93
2021/01/10 05:30:42;;;;;;;1.30;0.77;;;24.60;92.90;;;;;;5050387;28;20025;-93
2021/01/10 05:33:09;;;;;;;3.72;0.70;;;24.50;93.20;;;;;;5049713;28;20362;-93
2021/01/10 05:35:50;;;;;;;2.40;0.88;;;24.50;93.20;;;;;;5048796;28;20321;-92
2021/01/10 05:38:29;;;;;;;2.47;0.80;;;24.50;93.20;;;;;;5049395;28;20240;-91
2021/01/10 05:41:01;;;;;;;1.10;0.68;;;24.50;93.30;;;;;;5049303;28;20288;-92
2021/01/10 05:43:29;;;;;;;2.13;0.98;;;24.50;93.40;;;;;;5049323;28;20027;-92
2021/01/10 05:45:55;;;;;;;2.42;0.80;;;24.50;93.50;;;;;;5049034;28;20309;-91
2021/01/10 05:48:24;;;;;;;1.92;0.70;;;24.50;93.90;;;;;;5050094;28;20024;-92
2021/01/10 05:50:52;;;;;;;1.65;0.70;;;24.40;93.80;;;;;;5033292;28;20375;-90
2021/01/10 05:53:23;;;;;;;2.20;0.85;;;24.40;93.80;;;;;;5067671;28;20092;-91
2021/01/10 05:56:03;;;;;;;3.37;0.80;;;24.40;93.70;;;;;;5050232;28;20021;-92
2021/01/10 05:58:33;;;;;;;0.82;0.57;;;24.40;93.80;;;;;;5050935;28;20078;-92
2021/01/10 06:04:23;;;;;;;0.85;0.65;;;24.30;94.30;;;;;;5068040;28;20027;-94
2021/01/10 06:06:50;;;;;;;0.75;0.60;;;24.20;94.20;;;;;;5049376;28;20039;-90
2021/01/10 06:09:17;;;;;;;0.85;0.57;;;24.30;94.30;;;;;;5049301;28;20217;-91
2021/01/10 06:12:01;;;;;;;4.38;0.68;;;24.30;94.30;;;;;;5050515;28;20020;-91
2021/01/10 06:14:28;;;;;;;1.55;0.70;;;24.30;94.00;;;;;;5050207;28;20025;-92
2021/01/10 06:16:57;;;;;;;5.00;0.65;;;24.30;94.20;;;;;;5049853;28;20017;-91
2021/01/10 06:19:29;;;;;;;1.45;0.50;;;24.30;94.70;;;;;;5050976;28;20044;-91
2021/01/10 06:22:02;;;;;;;2.38;0.40;;;24.20;94.80;;;;;;5056327;28;20035;-93
2021/01/10 06:24:36;;;;;;;2.90;0.63;;;24.20;94.70;;;;;;5050031;28;20028;-93
2021/01/10 06:27:10;;;;;;;2.40;0.60;;;24.20;94.80;;;;;;5052281;28;20025;-91
2021/01/10 06:29:51;;;;;;;0.90;0.70;;;24.20;94.80;;;;;;5048302;28;20044;-90
2021/01/10 06:32:19;;;;;;;1.83;0.60;;;24.10;94.80;;;;;;5052893;28;20044;-93
2021/01/10 06:34:47;;;;;;;3.08;0.60;;;24.20;94.80;;;;;;5053910;28;20254;-93
2021/01/10 06:37:14;;;;;;;1.92;0.57;;;24.20;94.50;;;;;;5049653;28;20025;-93
2021/01/10 06:39:46;;;;;;;1.40;0.60;;;24.20;94.30;;;;;;5052128;28;20028;-93
2021/01/10 06:42:30;;;;;;;1.42;0.55;;;24.10;94.10;;;;;;5048811;28;20029;-92
2021/01/10 06:45:00;;;;;;;2.15;0.60;;;24.10;94.00;;;;;;5032598;28;20171;-92
2021/01/10 06:47:27;;;;;;;0.80;0.50;;;24.00;94.00;;;;;;5066740;28;20037;-92
2021/01/10 06:49:54;;;;;;;2.75;0.70;;;24.00;93.90;;;;;;5049687;28;20032;-93
2021/01/10 06:52:23;;;;;;;0.90;0.47;;;24.00;93.80;;;;;;5048310;28;20027;-93
2021/01/10 06:54:51;;;;;;;3.83;0.50;;;24.00;94.00;;;;;;5047289;28;20214;-93
2021/01/10 06:57:18;;;;;;;1.30;0.47;;;23.90;93.90;;;;;;5047999;28;20096;-92
2021/01/10 07:00:03;;;;;;;3.70;0.50;;;23.90;94.10;;;;;;5047835;28;20029;-93
2021/01/10 07:02:30;;;;;;;2.53;0.60;;;23.80;93.90;;;;;;5046807;28;20190;-93
2021/01/10 07:04:57;;;;;;;0.80;0.65;;;23.90;94.00;;;;;;5047577;28;20036;-93
2021/01/10 07:07:38;;;;;;;0.38;0.30;;;23.90;94.30;;;;;;5065014;28;20025;-93
2021/01/10 07:10:07;;;;;;;1.15;0.60;;;23.90;93.90;;;;;;5048449;28;20040;-92
2021/01/10 07:12:34;;;;;;;2.05;0.80;;;23.90;93.90;;;;;;5047869;28;20013;-92
2021/01/10 07:15:19;;;;;;;1.67;0.60;;;23.80;93.90;;;;;;5066267;28;20079;-91
2021/01/10 07:18:08;;;;;;;0.70;0.50;;;23.80;93.80;;;;;;5047795;28;20020;-93
2021/01/10 07:20:40;;;;;;;1.88;0.60;;;23.80;93.90;;;;;;5048950;28;20067;-92
2021/01/10 07:23:25;;;;;;;1.63;0.50;;;23.90;93.70;;;;;;5047913;28;20021;-92
2021/01/10 07:25:52;;;;;;;2.35;0.60;;;23.90;93.80;;;;;;5043220;28;20033;-92
2021/01/10 07:28:34;;;;;;;3.13;0.68;;;23.90;93.60;;;;;;5048933;28;20020;-93
2021/01/10 07:31:15;;;;;;;0.93;0.63;;;23.90;93.50;;;;;;5053599;28;20052;-92
2021/01/10 07:33:43;;;;;;;1.77;0.35;;;23.90;93.20;;;;;;5051897;28;20027;-92
2021/01/10 07:36:13;;;;;;;2.35;1.00;;;23.90;93.40;;;;;;5050761;28;20213;-92
2021/01/10 07:38:41;;;;;;;1.90;0.40;;;23.90;93.40;;;;;;5048506;28;20035;-92
2021/01/10 07:41:27;;;;;;;2.63;0.70;;;23.90;92.90;;;;;;5049868;28;20094;-91
2021/01/10 07:43:56;;;;;;;5.88;0.90;;;23.90;92.90;;;;;;5046984;28;20025;-93
2021/01/10 07:46:54;;;;;;;2.50;0.73;;;24.00;92.90;;;;;;5047186;28;20049;-93
2021/01/10 07:49:25;;;;;;;2.22;0.57;;;24.00;92.90;;;;;;5047121;28;20301;-93
2021/01/10 07:51:52;;;;;;;2.45;0.60;;;24.00;92.60;;;;;;5046807;28;20317;-92
2021/01/10 07:54:52;;;;;;;0.70;0.40;;;24.00;92.80;;;;;;5046488;28;20280;-92
2021/01/10 07:57:30;;;;;;;0.60;0.32;;;23.90;92.90;;;;;;5046868;28;20021;-92
2021/01/10 08:00:08;;;;;;;1.52;0.57;;;24.00;92.90;;;;;;5046679;28;20052;-92
2021/01/10 08:02:54;;;;;;;0.47;0.47;;;24.00;92.70;;;;;;5047166;28;20092;-92
2021/01/10 08:05:35;;;;;;;1.73;0.60;;;24.00;92.90;;;;;;5047059;28;20024;-93
2021/01/10 08:08:05;;;;;;;1.48;0.73;;;24.00;92.90;;;;;;5046730;28;20021;-93
2021/01/10 08:10:46;;;;;;;2.85;0.80;;;24.10;93.00;;;;;;5046998;28;20025;-93
2021/01/10 08:13:28;;;;;;;3.45;0.70;;;24.00;93.30;;;;;;5046908;28;20056;-93
2021/01/10 08:15:59;;;;;;;1.48;0.57;;;24.00;93.40;;;;;;5046902;28;20041;-93
2021/01/10 08:18:44;;;;;;;2.00;0.60;;;24.00;93.50;;;;;;5065231;28;20044;-91
2021/01/10 08:21:16;;;;;;;3.75;0.90;;;24.00;93.30;;;;;;5042983;28;20317;-92
2021/01/10 08:23:46;;;;;;;1.63;0.50;;;24.00;93.30;;;;;;5064439;28;20198;-92
2021/01/10 08:26:15;;;;;;;4.90;0.60;;;24.00;93.60;;;;;;5046780;28;20056;-92
2021/01/10 08:28:48;;;;;;;3.28;0.60;;;24.00;93.70;;;;;;5046981;28;20154;-91
2021/01/10 08:31:20;;;;;;;2.97;0.63;;;24.00;93.80;;;;;;5046746;28;20024;-92
2021/01/10 08:33:48;;;;;;;2.50;0.57;;;24.00;93.50;;;;;;5046805;28;20317;-92
2021/01/10 08:36:21;;;;;;;0.55;0.45;;;24.00;93.80;;;;;;5047378;28;20314;-93
2021/01/10 08:39:09;;;;;;;3.38;0.63;;;24.00;93.70;;;;;;5046354;28;20067;-92
2021/01/10 08:41:42;;;;;;;1.95;0.70;;;23.90;93.70;;;;;;5046703;28;20029;-92
2021/01/10 08:44:14;;;;;;;1.02;0.45;;;23.80;93.70;;;;;;5046603;28;20057;-92
2021/01/10 08:46:46;;;;;;;0.40;0.40;;;23.90;93.80;;;;;;5046982;28;20053;-92
2021/01/10 08:49:17;;;;;;;1.02;0.47;;;23.80;93.70;;;;;;5046909;28;20216;-93
2021/01/10 08:51:44;;;;;;;2.70;0.68;;;23.80;93.80;;;;;;5051566;28;20048;-92
2021/01/10 08:54:19;;;;;;;4.82;1.05;;;23.80;93.40;;;;;;5051183;28;20020;-92
2021/01/10 08:56:54;;;;;;;0.80;0.63;;;23.90;93.50;;;;;;5051933;28;20021;-91
2021/01/10 08:59:43;;;;;;;0.95;0.50;;;23.80;93.20;;;;;;5050654;28;20063;-94
2021/01/10 09:02:11;;;;;;;1.33;0.60;;;23.90;93.20;;;;;;5068216;28;20316;-92
2021/01/10 09:04:40;;;;;;;3.75;1.27;;;23.90;92.90;;;;;;5067524;28;20070;-91
2021/01/10 09:07:16;;;;;;;4.18;0.50;;;24.00;93.10;;;;;;5050264;28;20254;-93
2021/01/10 09:09:57;;;;;;;1.67;0.60;;;24.00;92.90;;;;;;5049223;28;20039;-92
2021/01/10 09:12:39;;;;;;;2.20;0.50;;;24.00;92.90;;;;;;5050228;28;20017;-92
2021/01/10 09:15:17;;;;;;;1.00;0.45;;;24.00;92.80;;;;;;5067450;28;20096;-92
2021/01/10 09:17:48;;;;;;;2.47;0.45;;;24.00;93.00;;;;;;5050144;28;20066;-93
2021/01/10 09:20:20;;;;;;;2.10;0.57;;;24.00;93.00;;;;;;5049667;28;20036;-91
2021/01/10 09:22:48;;;;;;;1.33;0.45;;;24.00;93.10;;;;;;5049694;28;20021;-93
2021/01/10 09:25:19;;;;;;;0.40;0.40;;;24.10;93.00;;;;;;5049169;28;20094;-92
2021/01/10 09:28:04;;;;;;;4.50;0.60;;;24.10;93.00;;;;;;5049469;28;20097;-92
2021/01/10 09:30:31;;;;;;;1.00;0.50;;;24.10;92.80;;;;;;5049475;28;20040;-91
2021/01/10 09:32:59;;;;;;;2.15;0.50;;;24.00;92.60;;;;;;5050812;28;20021;-92
2021/01/10 09:35:26;;;;;;;1.10;0.57;;;24.00;92.60;;;;;;5067575;28;20035;-91
2021/01/10 09:37:52;;;;;;;3.70;2.20;;;24.10;92.70;;;;;;5049350;28;20023;-92
2021/01/10 09:40:19;;;;;;;0.88;0.77;;;24.10;93.10;;;;;;5049185;28;20063;-92
2021/01/10 09:42:49;;;;;;;0.68;0.50;;;24.10;92.80;;;;;;5067315;28;20021;-92
2021/01/10 09:45:32;;;;;;;1.35;0.73;;;24.10;92.80;;;;;;5067435;28;20025;-92
2021/01/10 09:48:03;;;;;;;1.40;0.93;;;24.20;92.60;;;;;;5048965;28;20112;-92
2021/01/10 09:50:31;;;;;;;1.45;0.70;;;24.20;93.00;;;;;;5048711;28;20040;-93
2021/01/10 09:52:58;;;;;;;3.30;0.85;;;24.20;92.60;;;;;;5049004;28;20435;-93
2021/01/10 09:55:25;;;;;;;2.97;0.57;;;24.20;92.60;;;;;;5048688;28;20021;-91
2021/01/10 09:57:53;;;;;;;2.05;0.60;;;24.20;92.50;;;;;;5049109;28;20028;-92
2021/01/10 10:00:21;;;;;;;1.75;0.60;;;24.10;92.40;;;;;;5048650;28;20095;-93
2021/01/10 10:02:48;;;;;;;3.92;0.90;;;24.10;92.30;;;;;;5048874;28;20040;-93
2021/01/10 10:05:22;;;;;;;3.15;1.13;;;24.10;92.30;;;;;;5049910;28;20021;-93
2021/01/10 10:08:00;;;;;;;4.53;2.28;;;24.10;92.30;;;;;;5050183;28;20021;-93
2021/01/10 10:10:38;;;;;;;18.38;11.50;;;24.10;92.20;;;;;;5047286;28;20050;-94
2021/01/10 10:13:07;;;;;;;7.05;4.50;;;24.10;92.40;;;;;;5068910;28;20084;-93
2021/01/10 10:15:51;;;;;;;16.27;8.88;;;24.20;92.70;;;;;;5050656;28;20074;-92
2021/01/10 10:18:31;;;;;;;7.47;5.05;;;24.20;92.60;;;;;;5049799;28;20220;-92
2021/01/10 10:21:00;;;;;;;6.35;4.32;;;24.20;92.50;;;;;;5048985;28;20021;-92
2021/01/10 10:23:27;;;;;;;6.25;3.38;;;24.20;92.40;;;;;;5048254;28;20048;-92
2021/01/10 10:25:53;;;;;;;5.78;2.00;;;24.20;92.40;;;;;;5049100;28;20021;-91
2021/01/10 10:28:20;;;;;;;0.68;0.50;;;24.10;92.60;;;;;;5066364;28;20059;-93
2021/01/10 10:30:49;;;;;;;3.17;0.82;;;24.10;92.40;;;;;;5049274;28;20313;-92
2021/01/10 10:33:16;;;;;;;2.05;0.85;;;24.10;92.40;;;;;;5067744;28;20096;-93
2021/01/10 10:35:44;;;;;;;1.08;0.60;;;24.10;92.30;;;;;;5068888;28;20017;-92
2021/01/10 10:41:33;;;;;;;0.80;0.60;;;24.00;92.20;;;;;;5070922;28;20197;-91
2021/01/10 10:44:00;;;;;;;1.50;0.77;;;24.00;92.50;;;;;;5049266;28;20028;-93
2021/01/10 10:46:32;;;;;;;2.25;0.60;;;24.00;92.40;;;;;;5048780;28;20021;-91
2021/01/10 10:48:59;;;;;;;2.97;0.70;;;24.00;92.40;;;;;;5049187;28;20043;-92
2021/01/10 10:51:31;;;;;;;1.23;0.50;;;24.00;92.40;;;;;;5048470;28;20021;-91
2021/01/10 10:54:03;;;;;;;2.25;0.70;;;24.00;92.40;;;;;;5066763;28;20216;-92
2021/01/10 10:56:42;;;;;;;1.67;0.80;;;24.00;92.60;;;;;;5047693;28;20017;-92
2021/01/10 10:59:10;;;;;;;3.40;0.90;;;24.10;92.90;;;;;;5048116;28;20024;-93
2021/01/10 11:01:40;;;;;;;2.50;0.77;;;24.10;92.60;;;;;;5048359;28;20025;-93
2021/01/10 11:04:07;;;;;;;3.13;0.70;;;24.10;92.80;;;;;;5047411;28;20037;-93
2021/01/10 11:06:35;;;;;;;3.47;0.80;;;24.10;92.40;;;;;;5047735;28;20033;-92
2021/01/10 11:09:03;;;;;;;1.33;0.80;;;24.20;92.50;;;;;;5047463;28;20312;-92
2021/01/10 11:11:38;;;;;;;1.95;0.50;;;24.20;92.40;;;;;;5048169;28;20392;-92
2021/01/10 11:14:06;;;;;;;0.88;0.60;;;24.20;92.30;;;;;;5047126;28;20031;-93
2021/01/10 11:16:38;;;;;;;1.30;0.60;;;24.20;92.20;;;;;;5047990;28;20017;-93
2021/01/10 11:19:08;;;;;;;2.05;0.80;;;24.20;92.30;;;;;;5047672;28;20217;-92
2021/01/10 11:21:38;;;;;;;3.40;0.90;;;24.20;92.50;;;;;;5047571;28;20192;-92
2021/01/10 11:24:06;;;;;;;3.95;1.70;;;24.20;92.40;;;;;;5048195;28;20025;-93
2021/01/10 11:26:37;;;;;;;2.35;1.45;;;24.20;92.80;;;;;;5047643;28;20023;-92
2021/01/10 11:29:24;;;;;;;3.53;2.40;;;24.30;92.60;;;;;;5033006;28;20063;-92
2021/01/10 11:31:52;;;;;;;5.10;2.00;;;24.30;92.30;;;;;;5051411;28;20096;-91
2021/01/10 11:34:21;;;;;;;2.88;1.70;;;24.30;92.40;;;;;;5047761;28;20055;-92
2021/01/10 11:36:52;;;;;;;3.78;1.30;;;24.30;92.30;;;;;;5047983;28;20039;-93
2021/01/10 11:39:26;;;;;;;14.50;7.45;;;24.20;92.30;;;;;;5046916;28;20321;-93
2021/01/10 11:41:55;;;;;;;20.23;12.00;;;24.20;92.20;;;;;;5031174;28;20024;-92
2021/01/10 11:44:25;;;;;;;18.33;11.32;;;24.20;92.20;;;;;;5048316;28;20056;-93
2021/01/10 11:46:53;;;;;;;15.60;7.75;;;24.30;91.90;;;;;;5030947;28;20060;-92
2021/01/10 11:49:22;;;;;;;5.57;2.65;;;24.30;91.80;;;;;;5048430;28;20028;-93
2021/01/10 11:51:49;;;;;;;2.05;1.20;;;24.30;91.50;;;;;;5046906;28;20033;-91
2021/01/10 11:54:20;;;;;;;2.95;0.95;;;24.40;91.40;;;;;;5047167;28;20051;-92
2021/01/10 11:56:47;;;;;;;2.72;1.00;;;24.50;91.50;;;;;;5047002;28;20309;-92
2021/01/10 11:59:14;;;;;;;3.88;0.95;;;24.50;90.90;;;;;;5046763;28;20029;-91
2021/01/10 12:01:42;;;;;;;1.52;0.65;;;24.60;91.00;;;;;;5066611;28;20017;-90
2021/01/10 12:04:12;;;;;;;2.10;0.98;;;24.60;91.00;;;;;;5049176;28;20109;-88
2021/01/10 12:06:40;;;;;;;1.65;1.10;;;24.70;90.60;;;;;;5050305;28;20332;-91
2021/01/10 12:09:13;;;;;;;3.38;1.30;;;24.80;90.60;;;;;;5048875;28;20056;-91
2021/01/10 12:11:42;;;;;;;2.78;1.10;;;24.80;90.30;;;;;;5035878;28;20017;-92
2021/01/10 12:14:09;;;;;;;1.50;0.90;;;24.80;90.20;;;;;;5070906;28;20076;-91
2021/01/10 12:16:37;;;;;;;2.72;1.10;;;24.80;89.00;;;;;;5049793;28;20021;-92
2021/01/10 12:19:04;;;;;;;3.20;1.20;;;24.90;90.10;;;;;;5047863;28;20036;-91
2021/01/10 12:21:32;;;;;;;9.30;1.27;;;24.90;90.30;;;;;;5066156;28;20017;-92
2021/01/10 12:23:59;;;;;;;12.07;2.08;;;25.00;90.40;;;;;;5048305;28;20052;-93
2021/01/10 12:26:26;;;;;;;12.57;2.22;;;25.10;91.00;;;;;;5057626;28;20021;-92
2021/01/10 12:29:04;;;;;;;12.10;2.22;;;25.00;90.20;;;;;;5056310;28;20055;-90
2021/01/10 12:31:31;;;;;;;4.13;1.02;;;25.00;90.00;;;;;;5075825;28;20039;-94
2021/01/10 12:33:58;;;;;;;3.88;0.95;;;25.00;90.20;;;;;;5057677;28;20021;-91
2021/01/10 12:36:26;;;;;;;7.03;2.08;;;25.10;90.30;;;;;;5054714;28;20024;-90
2021/01/10 12:39:06;;;;;;;3.58;1.60;;;25.00;90.40;;;;;;5076314;28;20033;-90
2021/01/10 12:41:34;;;;;;;3.88;1.50;;;25.00;90.20;;;;;;5059173;28;20025;-92
2021/01/10 12:44:03;;;;;;;2.35;1.25;;;25.00;90.20;;;;;;5059697;28;20032;-91
2021/01/10 12:46:34;;;;;;;4.95;3.90;;;25.00;90.00;;;;;;5058851;28;20039;-91
2021/01/10 12:49:02;;;;;;;6.10;3.50;;;25.10;90.20;;;;;;5073889;28;20060;-91
2021/01/10 12:51:47;;;;;;;5.68;3.20;;;25.10;90.10;;;;;;5060174;28;20039;-93
2021/01/10 12:54:16;;;;;;;5.95;2.47;;;25.10;90.00;;;;;;5078914;28;20112;-91
2021/01/10 12:56:49;;;;;;;4.45;2.78;;;25.10;90.30;;;;;;5076230;28;20040;-92
2021/01/10 12:59:21;;;;;;;11.20;2.70;;;25.10;91.10;;;;;;5059723;28;20025;-90
2021/01/10 13:01:48;;;;;;;9.75;3.03;;;25.00;91.10;;;;;;5057394;28;20025;-90
2021/01/10 13:04:16;;;;;;;11.40;2.92;;;24.90;91.60;;;;;;5058506;28;20029;-91
2021/01/10 13:06:46;;;;;;;9.48;3.92;;;24.80;92.30;;;;;;5040891;28;20021;-89
2021/01/10 13:09:13;;;;;;;52.33;10.02;;;24.60;92.80;;;;;;5056837;28;20032;-92
2021/01/10 13:11:41;;;;;;;31.98;6.10;;;24.60;93.00;;;;;;5037724;28;20041;-93
2021/01/10 13:14:08;;;;;;;27.52;5.97;;;24.70;92.70;;;;;;5055578;28;20056;-89
2021/01/10 13:16:38;;;;;;;26.48;6.35;;;24.70;93.20;;;;;;5056855;28;20032;-92
2021/01/10 13:19:06;;;;;;;16.70;5.53;;;24.80;93.40;;;;;;5055348;28;20040;-95
2021/01/10 13:21:35;;;;;;;8.48;4.35;;;24.80;94.50;;;;;;5053334;28;20020;-95
2021/01/10 13:24:02;;;;;;;13.55;7.78;;;24.70;94.10;;;;;;5072680;28;20021;-92
2021/01/10 13:26:30;;;;;;;15.27;8.13;;;24.50;94.20;;;;;;5053873;28;20021;-92
2021/01/10 13:28:57;;;;;;;7.78;5.32;;;24.40;94.70;;;;;;5053429;28;20083;-93
2021/01/10 13:31:24;;;;;;;5.30;3.90;;;24.40;94.60;;;;;;5050757;28;20017;-92
2021/01/10 13:33:51;;;;;;;4.95;3.33;;;24.40;94.70;;;;;;5057976;28;20027;-94
2021/01/10 13:36:31;;;;;;;5.15;2.25;;;24.50;94.60;;;;;;5050009;28;20020;-94
2021/01/10 13:38:57;;;;;;;4.43;1.85;;;24.40;94.50;;;;;;5050416;28;20167;-91
2021/01/10 13:41:42;;;;;;;3.00;1.60;;;24.30;94.60;;;;;;5051959;28;20025;-93
2021/01/10 13:44:30;;;;;;;1.88;1.20;;;24.20;94.80;;;;;;5054942;28;20031;-92
2021/01/10 13:46:57;;;;;;;3.42;1.80;;;24.30;94.90;;;;;;5055779;28;20059;-93
2021/01/10 13:50:00;;;;;;;2.03;1.10;;;24.40;94.80;;;;;;5056995;28;20051;-90
2021/01/10 13:52:29;;;;;;;2.20;1.02;;;24.50;94.10;;;;;;5027854;28;20088;-93
2021/01/10 13:55:16;;;;;;;1.58;1.15;;;24.70;94.60;;;;;;5055414;28;20025;-93
2021/01/10 13:57:43;;;;;;;1.85;1.40;;;24.90;93.90;;;;;;5051973;28;20017;-94
2021/01/10 14:00:30;;;;;;;1.50;1.25;;;25.00;93.30;;;;;;5054361;28;20240;-94
2021/01/10 14:02:59;;;;;;;2.95;1.40;;;25.00;93.10;;;;;;5067618;28;20037;-92
2021/01/10 14:05:46;;;;;;;4.35;2.53;;;25.10;93.00;;;;;;5051729;28;20315;-93
2021/01/10 14:08:31;;;;;;;5.70;2.58;;;25.10;92.20;;;;;;5050341;28;20039;-94
2021/01/10 14:11:01;;;;;;;3.42;2.80;;;25.10;92.40;;;;;;5050090;28;20017;-94